sensor_id;sensor_type;location;lat;lon;timestamp;P1;durP1;ratioP1;P2;durP2;ratioP2
17259;SDS011;8746;49.230;9.220;2023-05-10T00:01:49;1.53;;;1.10;;
17259;SDS011;8746;49.230;9.220;2023-05-10T00:04:14;1.03;;;0.80;;
17259;SDS011;8746;49.230;9.220;2023-05-10T00:06:39;0.80;;;0.80;;
17259;SDS011;8746;49.230;9.220;2023-05-10T00:09:04;0.90;;;0.90;;
17259;SDS011;8746;49.230;9.220;2023-05-10T00:11:30;1.20;;;0.80;;
17259;SDS011;8746;49.230;9.220;2023-05-10T00:13:55;0.70;;;0.70;;
17259;SDS011;8746;49.230;9.220;2023-05-10T00:16:21;0.80;;;0.80;;
17259;SDS011;8746;49.230;9.220;2023-05-10T00:18:46;4.17;;;0.90;;
17259;SDS011;8746;49.230;9.220;2023-05-10T00:21:11;0.80;;;0.80;;
17259;SDS011;8746;49.230;9.220;2023-05-10T00:23:37;2.50;;;0.90;;
17259;SDS011;8746;49.230;9.220;2023-05-10T00:26:02;0.87;;;0.87;;
17259;SDS011;8746;49.230;9.220;2023-05-10T00:28:28;0.80;;;0.80;;
17259;SDS011;8746;49.230;9.220;2023-05-10T00:30:53;2.30;;;0.80;;
17259;SDS011;8746;49.230;9.220;2023-05-10T00:33:21;0.90;;;0.90;;
17259;SDS011;8746;49.230;9.220;2023-05-10T00:35:46;1.10;;;1.10;;
17259;SDS011;8746;49.230;9.220;2023-05-10T00:38:11;2.23;;;1.20;;
17259;SDS011;8746;49.230;9.220;2023-05-10T00:40:37;0.83;;;0.83;;
17259;SDS011;8746;49.230;9.220;2023-05-10T00:43:02;0.90;;;0.90;;
17259;SDS011;8746;49.230;9.220;2023-05-10T00:45:28;1.00;;;1.00;;
17259;SDS011;8746;49.230;9.220;2023-05-10T00:47:55;2.90;;;1.00;;
17259;SDS011;8746;49.230;9.220;2023-05-10T00:50:21;1.30;;;1.30;;
17259;SDS011;8746;49.230;9.220;2023-05-10T00:52:48;1.03;;;0.93;;
17259;SDS011;8746;49.230;9.220;2023-05-10T00:55:14;1.10;;;1.00;;
17259;SDS011;8746;49.230;9.220;2023-05-10T00:57:39;0.90;;;0.90;;
17259;SDS011;8746;49.230;9.220;2023-05-10T01:00:06;1.00;;;1.00;;
17259;SDS011;8746;49.230;9.220;2023-05-10T01:02:33;1.00;;;1.00;;
17259;SDS011;8746;49.230;9.220;2023-05-10T01:04:58;1.63;;;1.00;;
17259;SDS011;8746;49.230;9.220;2023-05-10T01:07:24;0.90;;;0.90;;
17259;SDS011;8746;49.230;9.220;2023-05-10T01:09:50;1.30;;;1.20;;
17259;SDS011;8746;49.230;9.220;2023-05-10T01:12:15;1.00;;;1.00;;
17259;SDS011;8746;49.230;9.220;2023-05-10T01:14:41;1.30;;;1.20;;
17259;SDS011;8746;49.230;9.220;2023-05-10T01:17:06;3.90;;;1.17;;
17259;SDS011;8746;49.230;9.220;2023-05-10T01:19:34;1.13;;;1.13;;
17259;SDS011;8746;49.230;9.220;2023-05-10T01:33:30;1.70;;;1.60;;
17259;SDS011;8746;49.230;9.220;2023-05-10T01:39:31;1.63;;;1.53;;
17259;SDS011;8746;49.230;9.220;2023-05-10T01:41:56;2.03;;;1.83;;
17259;SDS011;8746;49.230;9.220;2023-05-10T01:44:29;1.90;;;1.80;;
17259;SDS011;8746;49.230;9.220;2023-05-10T01:47:10;2.27;;;2.03;;
17259;SDS011;8746;49.230;9.220;2023-05-10T01:49:42;3.00;;;2.20;;
17259;SDS011;8746;49.230;9.220;2023-05-10T01:52:12;2.10;;;2.00;;
17259;SDS011;8746;49.230;9.220;2023-05-10T01:54:41;2.10;;;2.00;;
17259;SDS011;8746;49.230;9.220;2023-05-10T01:57:12;2.63;;;2.37;;
17259;SDS011;8746;49.230;9.220;2023-05-10T01:59:40;2.67;;;2.47;;
17259;SDS011;8746;49.230;9.220;2023-05-10T02:02:10;2.37;;;2.27;;
17259;SDS011;8746;49.230;9.220;2023-05-10T02:04:37;2.87;;;2.67;;
17259;SDS011;8746;49.230;9.220;2023-05-10T02:07:04;2.40;;;2.30;;
17259;SDS011;8746;49.230;9.220;2023-05-10T02:09:32;2.97;;;2.43;;
17259;SDS011;8746;49.230;9.220;2023-05-10T02:11:59;2.60;;;2.40;;
17259;SDS011;8746;49.230;9.220;2023-05-10T02:14:27;2.43;;;2.33;;
17259;SDS011;8746;49.230;9.220;2023-05-10T02:16:55;2.73;;;2.57;;
17259;SDS011;8746;49.230;9.220;2023-05-10T02:19:23;2.27;;;2.10;;
17259;SDS011;8746;49.230;9.220;2023-05-10T02:21:50;2.40;;;2.30;;
17259;SDS011;8746;49.230;9.220;2023-05-10T02:24:16;2.50;;;2.40;;
17259;SDS011;8746;49.230;9.220;2023-05-10T02:26:44;3.30;;;2.40;;
17259;SDS011;8746;49.230;9.220;2023-05-10T02:29:12;2.50;;;2.37;;
17259;SDS011;8746;49.230;9.220;2023-05-10T02:31:39;2.73;;;2.57;;
17259;SDS011;8746;49.230;9.220;2023-05-10T02:34:08;2.80;;;2.60;;
17259;SDS011;8746;49.230;9.220;2023-05-10T02:36:35;2.67;;;2.47;;
17259;SDS011;8746;49.230;9.220;2023-05-10T02:39:03;2.70;;;2.60;;
17259;SDS011;8746;49.230;9.220;2023-05-10T02:41:30;3.00;;;2.80;;
17259;SDS011;8746;49.230;9.220;2023-05-10T02:43:59;3.30;;;3.00;;
17259;SDS011;8746;49.230;9.220;2023-05-10T02:46:27;3.10;;;2.90;;
17259;SDS011;8746;49.230;9.220;2023-05-10T02:48:53;3.13;;;2.93;;
17259;SDS011;8746;49.230;9.220;2023-05-10T02:51:18;2.33;;;2.23;;
17259;SDS011;8746;49.230;9.220;2023-05-10T02:53:48;2.67;;;2.57;;
17259;SDS011;8746;49.230;9.220;2023-05-10T02:56:19;2.60;;;2.40;;
17259;SDS011;8746;49.230;9.220;2023-05-10T02:58:50;2.50;;;2.40;;
17259;SDS011;8746;49.230;9.220;2023-05-10T03:01:15;2.63;;;2.50;;
17259;SDS011;8746;49.230;9.220;2023-05-10T03:03:41;2.63;;;2.53;;
17259;SDS011;8746;49.230;9.220;2023-05-10T03:06:06;3.23;;;3.00;;
17259;SDS011;8746;49.230;9.220;2023-05-10T03:08:32;2.93;;;2.70;;
17259;SDS011;8746;49.230;9.220;2023-05-10T03:16:46;3.27;;;3.00;;
17259;SDS011;8746;49.230;9.220;2023-05-10T03:19:32;3.47;;;3.17;;
17259;SDS011;8746;49.230;9.220;2023-05-10T03:22:05;3.00;;;2.80;;
17259;SDS011;8746;49.230;9.220;2023-05-10T03:24:33;2.77;;;2.57;;
17259;SDS011;8746;49.230;9.220;2023-05-10T03:27:01;3.17;;;2.93;;
17259;SDS011;8746;49.230;9.220;2023-05-10T03:29:29;3.00;;;2.80;;
17259;SDS011;8746;49.230;9.220;2023-05-10T03:31:57;3.17;;;2.87;;
17259;SDS011;8746;49.230;9.220;2023-05-10T03:34:24;4.90;;;3.20;;
17259;SDS011;8746;49.230;9.220;2023-05-10T03:36:50;3.00;;;2.80;;
17259;SDS011;8746;49.230;9.220;2023-05-10T03:39:15;3.17;;;2.97;;
17259;SDS011;8746;49.230;9.220;2023-05-10T03:41:41;4.93;;;2.90;;
17259;SDS011;8746;49.230;9.220;2023-05-10T03:44:07;3.20;;;2.90;;
17259;SDS011;8746;49.230;9.220;2023-05-10T03:46:32;4.07;;;3.17;;
17259;SDS011;8746;49.230;9.220;2023-05-10T03:48:57;3.73;;;3.33;;
17259;SDS011;8746;49.230;9.220;2023-05-10T03:51:23;4.47;;;3.03;;
17259;SDS011;8746;49.230;9.220;2023-05-10T03:53:50;3.13;;;2.90;;
17259;SDS011;8746;49.230;9.220;2023-05-10T03:56:15;3.10;;;2.90;;
17259;SDS011;8746;49.230;9.220;2023-05-10T03:58:41;4.73;;;3.20;;
17259;SDS011;8746;49.230;9.220;2023-05-10T04:01:06;3.73;;;3.50;;
17259;SDS011;8746;49.230;9.220;2023-05-10T04:03:31;3.37;;;3.17;;
17259;SDS011;8746;49.230;9.220;2023-05-10T04:06:00;3.93;;;3.60;;
17259;SDS011;8746;49.230;9.220;2023-05-10T04:08:26;3.33;;;3.13;;
17259;SDS011;8746;49.230;9.220;2023-05-10T04:10:52;4.07;;;3.30;;
17259;SDS011;8746;49.230;9.220;2023-05-10T04:13:17;5.17;;;3.30;;
17259;SDS011;8746;49.230;9.220;2023-05-10T04:15:42;3.50;;;3.30;;
17259;SDS011;8746;49.230;9.220;2023-05-10T04:18:08;3.30;;;3.10;;
17259;SDS011;8746;49.230;9.220;2023-05-10T04:20:34;3.63;;;3.40;;
17259;SDS011;8746;49.230;9.220;2023-05-10T04:22:59;3.17;;;2.97;;
17259;SDS011;8746;49.230;9.220;2023-05-10T04:25:24;3.73;;;3.37;;
17259;SDS011;8746;49.230;9.220;2023-05-10T04:27:49;3.90;;;3.60;;
17259;SDS011;8746;49.230;9.220;2023-05-10T04:30:15;4.17;;;3.87;;
17259;SDS011;8746;49.230;9.220;2023-05-10T04:32:40;4.27;;;3.97;;
17259;SDS011;8746;49.230;9.220;2023-05-10T04:35:05;4.50;;;4.20;;
17259;SDS011;8746;49.230;9.220;2023-05-10T04:37:31;4.33;;;4.03;;
17259;SDS011;8746;49.230;9.220;2023-05-10T04:39:56;4.50;;;4.10;;
17259;SDS011;8746;49.230;9.220;2023-05-10T04:42:21;4.67;;;4.23;;
17259;SDS011;8746;49.230;9.220;2023-05-10T04:44:47;4.17;;;3.90;;
17259;SDS011;8746;49.230;9.220;2023-05-10T04:47:12;4.60;;;4.20;;
17259;SDS011;8746;49.230;9.220;2023-05-10T04:49:38;6.23;;;4.20;;
17259;SDS011;8746;49.230;9.220;2023-05-10T04:52:03;4.90;;;4.40;;
17259;SDS011;8746;49.230;9.220;2023-05-10T04:54:29;4.70;;;4.30;;
17259;SDS011;8746;49.230;9.220;2023-05-10T04:56:54;5.07;;;4.67;;
17259;SDS011;8746;49.230;9.220;2023-05-10T04:59:20;4.97;;;4.50;;
17259;SDS011;8746;49.230;9.220;2023-05-10T05:01:45;5.33;;;4.77;;
17259;SDS011;8746;49.230;9.220;2023-05-10T05:04:10;5.23;;;4.83;;
17259;SDS011;8746;49.230;9.220;2023-05-10T05:06:36;6.57;;;5.00;;
17259;SDS011;8746;49.230;9.220;2023-05-10T05:09:01;6.00;;;5.50;;
17259;SDS011;8746;49.230;9.220;2023-05-10T05:11:27;6.10;;;5.47;;
17259;SDS011;8746;49.230;9.220;2023-05-10T05:13:52;5.97;;;5.47;;
17259;SDS011;8746;49.230;9.220;2023-05-10T05:16:18;5.70;;;5.20;;
17259;SDS011;8746;49.230;9.220;2023-05-10T05:18:43;5.40;;;4.93;;
17259;SDS011;8746;49.230;9.220;2023-05-10T05:21:15;6.20;;;5.70;;
17259;SDS011;8746;49.230;9.220;2023-05-10T05:23:41;6.20;;;5.50;;
17259;SDS011;8746;49.230;9.220;2023-05-10T05:26:06;6.13;;;5.67;;
17259;SDS011;8746;49.230;9.220;2023-05-10T05:28:32;7.10;;;5.80;;
17259;SDS011;8746;49.230;9.220;2023-05-10T05:30:59;5.83;;;5.43;;
17259;SDS011;8746;49.230;9.220;2023-05-10T05:33:25;5.80;;;5.40;;
17259;SDS011;8746;49.230;9.220;2023-05-10T05:35:50;6.07;;;5.43;;
17259;SDS011;8746;49.230;9.220;2023-05-10T05:38:16;6.03;;;5.50;;
17259;SDS011;8746;49.230;9.220;2023-05-10T05:40:42;6.13;;;5.63;;
17259;SDS011;8746;49.230;9.220;2023-05-10T05:43:07;5.53;;;5.10;;
17259;SDS011;8746;49.230;9.220;2023-05-10T05:45:33;5.13;;;4.73;;
17259;SDS011;8746;49.230;9.220;2023-05-10T05:47:58;5.20;;;4.80;;
17259;SDS011;8746;49.230;9.220;2023-05-10T05:50:23;4.53;;;4.23;;
17259;SDS011;8746;49.230;9.220;2023-05-10T05:52:49;5.30;;;4.90;;
17259;SDS011;8746;49.230;9.220;2023-05-10T05:55:14;5.20;;;4.70;;
17259;SDS011;8746;49.230;9.220;2023-05-10T05:57:39;4.80;;;4.40;;
17259;SDS011;8746;49.230;9.220;2023-05-10T06:00:05;6.47;;;4.83;;
17259;SDS011;8746;49.230;9.220;2023-05-10T06:02:31;4.77;;;4.40;;
17259;SDS011;8746;49.230;9.220;2023-05-10T06:04:56;4.50;;;4.20;;
17259;SDS011;8746;49.230;9.220;2023-05-10T06:07:22;4.80;;;4.40;;
17259;SDS011;8746;49.230;9.220;2023-05-10T06:09:47;4.87;;;4.37;;
17259;SDS011;8746;49.230;9.220;2023-05-10T06:12:12;4.70;;;4.37;;
17259;SDS011;8746;49.230;9.220;2023-05-10T06:14:38;5.70;;;4.50;;
17259;SDS011;8746;49.230;9.220;2023-05-10T06:17:03;5.43;;;4.80;;
17259;SDS011;8746;49.230;9.220;2023-05-10T06:19:30;4.37;;;3.97;;
17259;SDS011;8746;49.230;9.220;2023-05-10T06:21:55;4.57;;;4.27;;
17259;SDS011;8746;49.230;9.220;2023-05-10T06:24:21;4.63;;;4.20;;
17259;SDS011;8746;49.230;9.220;2023-05-10T06:26:46;4.40;;;4.10;;
17259;SDS011;8746;49.230;9.220;2023-05-10T06:29:12;3.23;;;2.93;;
17259;SDS011;8746;49.230;9.220;2023-05-10T06:31:37;3.30;;;2.83;;
17259;SDS011;8746;49.230;9.220;2023-05-10T06:34:02;2.97;;;2.77;;
17259;SDS011;8746;49.230;9.220;2023-05-10T06:36:27;3.43;;;3.13;;
17259;SDS011;8746;49.230;9.220;2023-05-10T06:38:53;4.17;;;3.77;;
17259;SDS011;8746;49.230;9.220;2023-05-10T06:41:18;3.70;;;3.40;;
17259;SDS011;8746;49.230;9.220;2023-05-10T06:43:43;3.47;;;3.23;;
17259;SDS011;8746;49.230;9.220;2023-05-10T06:46:09;5.10;;;3.20;;
17259;SDS011;8746;49.230;9.220;2023-05-10T06:48:34;2.80;;;2.60;;
17259;SDS011;8746;49.230;9.220;2023-05-10T06:51:00;2.50;;;2.23;;
17259;SDS011;8746;49.230;9.220;2023-05-10T06:53:25;2.50;;;2.30;;
17259;SDS011;8746;49.230;9.220;2023-05-10T06:55:51;4.20;;;2.53;;
17259;SDS011;8746;49.230;9.220;2023-05-10T06:58:17;2.70;;;2.50;;
17259;SDS011;8746;49.230;9.220;2023-05-10T07:00:42;3.17;;;2.60;;
17259;SDS011;8746;49.230;9.220;2023-05-10T07:03:09;3.63;;;2.77;;
17259;SDS011;8746;49.230;9.220;2023-05-10T07:05:35;2.57;;;2.37;;
17259;SDS011;8746;49.230;9.220;2023-05-10T07:08:00;2.60;;;2.40;;
17259;SDS011;8746;49.230;9.220;2023-05-10T07:10:25;2.80;;;2.60;;
17259;SDS011;8746;49.230;9.220;2023-05-10T07:12:51;2.60;;;2.40;;
17259;SDS011;8746;49.230;9.220;2023-05-10T07:15:17;4.00;;;3.63;;
17259;SDS011;8746;49.230;9.220;2023-05-10T07:17:42;5.33;;;3.70;;
17259;SDS011;8746;49.230;9.220;2023-05-10T07:20:08;3.40;;;2.80;;
17259;SDS011;8746;49.230;9.220;2023-05-10T07:22:33;2.90;;;2.30;;
17259;SDS011;8746;49.230;9.220;2023-05-10T07:24:59;2.67;;;2.47;;
17259;SDS011;8746;49.230;9.220;2023-05-10T07:27:24;2.93;;;2.10;;
17259;SDS011;8746;49.230;9.220;2023-05-10T07:29:50;2.30;;;2.10;;
17259;SDS011;8746;49.230;9.220;2023-05-10T07:32:15;2.40;;;2.30;;
17259;SDS011;8746;49.230;9.220;2023-05-10T07:34:41;2.10;;;2.00;;
17259;SDS011;8746;49.230;9.220;2023-05-10T07:37:06;3.00;;;2.43;;
17259;SDS011;8746;49.230;9.220;2023-05-10T07:39:32;2.20;;;1.90;;
17259;SDS011;8746;49.230;9.220;2023-05-10T07:41:57;1.97;;;1.83;;
17259;SDS011;8746;49.230;9.220;2023-05-10T07:44:23;2.23;;;2.03;;
17259;SDS011;8746;49.230;9.220;2023-05-10T07:46:49;2.10;;;1.80;;
17259;SDS011;8746;49.230;9.220;2023-05-10T07:49:14;3.70;;;2.00;;
17259;SDS011;8746;49.230;9.220;2023-05-10T07:51:39;2.43;;;2.00;;
17259;SDS011;8746;49.230;9.220;2023-05-10T07:54:05;2.43;;;2.23;;
17259;SDS011;8746;49.230;9.220;2023-05-10T07:56:31;2.20;;;2.00;;
17259;SDS011;8746;49.230;9.220;2023-05-10T07:59:01;2.30;;;2.10;;
17259;SDS011;8746;49.230;9.220;2023-05-10T08:01:32;3.73;;;2.20;;
17259;SDS011;8746;49.230;9.220;2023-05-10T08:03:58;1.97;;;1.87;;
17259;SDS011;8746;49.230;9.220;2023-05-10T08:06:24;2.87;;;2.10;;
17259;SDS011;8746;49.230;9.220;2023-05-10T08:08:52;2.50;;;1.90;;
17259;SDS011;8746;49.230;9.220;2023-05-10T08:11:19;1.83;;;1.73;;
17259;SDS011;8746;49.230;9.220;2023-05-10T08:13:45;2.13;;;1.80;;
17259;SDS011;8746;49.230;9.220;2023-05-10T08:16:11;1.83;;;1.70;;
17259;SDS011;8746;49.230;9.220;2023-05-10T08:18:37;3.20;;;1.60;;
17259;SDS011;8746;49.230;9.220;2023-05-10T08:21:02;1.47;;;1.37;;
17259;SDS011;8746;49.230;9.220;2023-05-10T08:23:28;1.60;;;1.50;;
17259;SDS011;8746;49.230;9.220;2023-05-10T08:25:53;1.70;;;1.40;;
17259;SDS011;8746;49.230;9.220;2023-05-10T08:28:18;2.03;;;1.37;;
17259;SDS011;8746;49.230;9.220;2023-05-10T08:30:44;1.83;;;1.50;;
17259;SDS011;8746;49.230;9.220;2023-05-10T08:33:09;1.63;;;1.40;;
17259;SDS011;8746;49.230;9.220;2023-05-10T08:35:35;1.70;;;1.60;;
17259;SDS011;8746;49.230;9.220;2023-05-10T08:38:00;2.65;;;1.50;;
17259;SDS011;8746;49.230;9.220;2023-05-10T08:40:26;3.00;;;1.57;;
17259;SDS011;8746;49.230;9.220;2023-05-10T08:43:13;1.10;;;1.10;;
17259;SDS011;8746;49.230;9.220;2023-05-10T08:45:40;2.13;;;1.40;;
17259;SDS011;8746;49.230;9.220;2023-05-10T08:48:07;1.20;;;1.20;;
17259;SDS011;8746;49.230;9.220;2023-05-10T08:50:35;1.27;;;1.27;;
17259;SDS011;8746;49.230;9.220;2023-05-10T08:53:03;1.10;;;1.10;;
17259;SDS011;8746;49.230;9.220;2023-05-10T08:55:31;1.67;;;1.20;;
17259;SDS011;8746;49.230;9.220;2023-05-10T08:57:58;1.10;;;1.10;;
17259;SDS011;8746;49.230;9.220;2023-05-10T09:00:24;1.27;;;1.17;;
17259;SDS011;8746;49.230;9.220;2023-05-10T09:02:50;2.42;;;1.30;;
17259;SDS011;8746;49.230;9.220;2023-05-10T09:05:16;1.10;;;1.10;;
17259;SDS011;8746;49.230;9.220;2023-05-10T09:07:42;1.30;;;1.20;;
17259;SDS011;8746;49.230;9.220;2023-05-10T09:10:08;1.97;;;1.30;;
17259;SDS011;8746;49.230;9.220;2023-05-10T09:12:34;2.23;;;1.10;;
17259;SDS011;8746;49.230;9.220;2023-05-10T09:15:00;0.90;;;0.90;;
17259;SDS011;8746;49.230;9.220;2023-05-10T09:17:26;1.00;;;1.00;;
17259;SDS011;8746;49.230;9.220;2023-05-10T09:19:57;0.80;;;0.80;;
17259;SDS011;8746;49.230;9.220;2023-05-10T09:22:24;0.87;;;0.87;;
17259;SDS011;8746;49.230;9.220;2023-05-10T09:25:03;1.05;;;0.93;;
17259;SDS011;8746;49.230;9.220;2023-05-10T09:27:31;1.00;;;1.00;;
17259;SDS011;8746;49.230;9.220;2023-05-10T09:29:57;1.80;;;1.02;;
17259;SDS011;8746;49.230;9.220;2023-05-10T09:32:35;1.27;;;0.90;;
17259;SDS011;8746;49.230;9.220;2023-05-10T09:35:10;0.90;;;0.90;;
17259;SDS011;8746;49.230;9.220;2023-05-10T09:37:36;0.70;;;0.70;;
17259;SDS011;8746;49.230;9.220;2023-05-10T09:40:06;2.83;;;1.30;;
17259;SDS011;8746;49.230;9.220;2023-05-10T09:42:33;0.90;;;0.90;;
17259;SDS011;8746;49.230;9.220;2023-05-10T09:45:05;1.38;;;0.90;;
17259;SDS011;8746;49.230;9.220;2023-05-10T09:47:35;1.02;;;1.00;;
17259;SDS011;8746;49.230;9.220;2023-05-10T09:50:01;0.93;;;0.93;;
17259;SDS011;8746;49.230;9.220;2023-05-10T09:52:29;1.25;;;0.90;;
17259;SDS011;8746;49.230;9.220;2023-05-10T09:55:15;1.00;;;0.90;;
17259;SDS011;8746;49.230;9.220;2023-05-10T09:57:41;0.98;;;0.98;;
17259;SDS011;8746;49.230;9.220;2023-05-10T10:00:06;2.65;;;1.10;;
17259;SDS011;8746;49.230;9.220;2023-05-10T10:02:33;2.28;;;1.40;;
17259;SDS011;8746;49.230;9.220;2023-05-10T10:05:00;1.20;;;1.10;;
17259;SDS011;8746;49.230;9.220;2023-05-10T10:07:27;0.90;;;0.90;;
17259;SDS011;8746;49.230;9.220;2023-05-10T10:09:53;0.88;;;0.88;;
17259;SDS011;8746;49.230;9.220;2023-05-10T10:12:20;1.98;;;1.00;;
17259;SDS011;8746;49.230;9.220;2023-05-10T10:14:46;2.65;;;0.90;;
17259;SDS011;8746;49.230;9.220;2023-05-10T10:17:13;1.15;;;1.05;;
17259;SDS011;8746;49.230;9.220;2023-05-10T10:19:38;1.55;;;1.00;;
17259;SDS011;8746;49.230;9.220;2023-05-10T10:22:04;0.80;;;0.80;;
17259;SDS011;8746;49.230;9.220;2023-05-10T10:24:30;1.23;;;0.90;;
17259;SDS011;8746;49.230;9.220;2023-05-10T10:26:57;1.00;;;0.90;;
17259;SDS011;8746;49.230;9.220;2023-05-10T10:29:39;1.45;;;0.90;;
17259;SDS011;8746;49.230;9.220;2023-05-10T10:35:02;1.10;;;1.00;;
17259;SDS011;8746;49.230;9.220;2023-05-10T10:37:43;1.10;;;0.90;;
17259;SDS011;8746;49.230;9.220;2023-05-10T10:40:23;0.88;;;0.88;;
17259;SDS011;8746;49.230;9.220;2023-05-10T10:42:55;1.70;;;1.20;;
17259;SDS011;8746;49.230;9.220;2023-05-10T10:45:21;10.05;;;7.13;;
17259;SDS011;8746;49.230;9.220;2023-05-10T10:47:48;21.30;;;15.93;;
17259;SDS011;8746;49.230;9.220;2023-05-10T10:50:15;2.47;;;2.25;;
17259;SDS011;8746;49.230;9.220;2023-05-10T10:52:43;5.22;;;2.80;;
17259;SDS011;8746;49.230;9.220;2023-05-10T10:55:11;3.45;;;2.00;;
17259;SDS011;8746;49.230;9.220;2023-05-10T10:57:44;8.48;;;7.68;;
17259;SDS011;8746;49.230;9.220;2023-05-10T11:00:23;1.02;;;1.02;;
17259;SDS011;8746;49.230;9.220;2023-05-10T11:07:58;1.10;;;1.10;;
17259;SDS011;8746;49.230;9.220;2023-05-10T11:10:25;0.80;;;0.80;;
17259;SDS011;8746;49.230;9.220;2023-05-10T11:12:52;1.70;;;0.85;;
17259;SDS011;8746;49.230;9.220;2023-05-10T11:15:19;1.67;;;0.90;;
17259;SDS011;8746;49.230;9.220;2023-05-10T11:17:45;1.65;;;0.90;;
17259;SDS011;8746;49.230;9.220;2023-05-10T11:20:16;0.90;;;0.90;;
17259;SDS011;8746;49.230;9.220;2023-05-10T11:22:51;0.95;;;0.95;;
17259;SDS011;8746;49.230;9.220;2023-05-10T11:25:17;1.00;;;1.00;;
17259;SDS011;8746;49.230;9.220;2023-05-10T11:27:43;1.45;;;1.08;;
17259;SDS011;8746;49.230;9.220;2023-05-10T11:30:11;2.25;;;0.88;;
17259;SDS011;8746;49.230;9.220;2023-05-10T11:32:37;1.15;;;1.10;;
17259;SDS011;8746;49.230;9.220;2023-05-10T11:35:10;2.28;;;0.80;;
17259;SDS011;8746;49.230;9.220;2023-05-10T11:37:37;0.82;;;0.82;;
17259;SDS011;8746;49.230;9.220;2023-05-10T11:40:07;3.22;;;0.93;;
17259;SDS011;8746;49.230;9.220;2023-05-10T11:42:35;0.88;;;0.88;;
17259;SDS011;8746;49.230;9.220;2023-05-10T11:45:02;0.90;;;0.90;;
17259;SDS011;8746;49.230;9.220;2023-05-10T11:47:27;1.17;;;0.80;;
17259;SDS011;8746;49.230;9.220;2023-05-10T11:49:53;1.30;;;0.80;;
17259;SDS011;8746;49.230;9.220;2023-05-10T11:52:18;1.03;;;0.77;;
17259;SDS011;8746;49.230;9.220;2023-05-10T11:54:53;1.20;;;1.00;;
17259;SDS011;8746;49.230;9.220;2023-05-10T11:57:20;0.70;;;0.70;;
17259;SDS011;8746;49.230;9.220;2023-05-10T11:59:46;0.80;;;0.80;;
17259;SDS011;8746;49.230;9.220;2023-05-10T12:02:13;1.43;;;1.00;;
17259;SDS011;8746;49.230;9.220;2023-05-10T12:04:38;2.30;;;0.90;;
17259;SDS011;8746;49.230;9.220;2023-05-10T12:07:04;0.97;;;0.97;;
17259;SDS011;8746;49.230;9.220;2023-05-10T12:09:30;1.60;;;0.90;;
17259;SDS011;8746;49.230;9.220;2023-05-10T12:11:56;1.43;;;1.00;;
17259;SDS011;8746;49.230;9.220;2023-05-10T12:14:24;2.00;;;1.23;;
17259;SDS011;8746;49.230;9.220;2023-05-10T12:16:49;1.90;;;1.13;;
17259;SDS011;8746;49.230;9.220;2023-05-10T12:19:18;1.10;;;1.00;;
17259;SDS011;8746;49.230;9.220;2023-05-10T12:21:44;1.20;;;1.10;;
17259;SDS011;8746;49.230;9.220;2023-05-10T12:24:10;1.57;;;1.10;;
17259;SDS011;8746;49.230;9.220;2023-05-10T12:26:35;3.27;;;1.30;;
17259;SDS011;8746;49.230;9.220;2023-05-10T12:29:14;1.40;;;1.30;;
17259;SDS011;8746;49.230;9.220;2023-05-10T12:34:35;1.50;;;1.17;;
17259;SDS011;8746;49.230;9.220;2023-05-10T12:37:03;2.00;;;1.10;;
17259;SDS011;8746;49.230;9.220;2023-05-10T12:39:42;2.33;;;1.07;;
17259;SDS011;8746;49.230;9.220;2023-05-10T12:42:08;1.20;;;1.10;;
17259;SDS011;8746;49.230;9.220;2023-05-10T12:44:34;1.33;;;1.23;;
17259;SDS011;8746;49.230;9.220;2023-05-10T12:46:59;3.03;;;1.50;;
17259;SDS011;8746;49.230;9.220;2023-05-10T12:49:25;1.33;;;1.17;;
17259;SDS011;8746;49.230;9.220;2023-05-10T12:51:50;2.70;;;1.37;;
17259;SDS011;8746;49.230;9.220;2023-05-10T12:54:15;2.93;;;1.43;;
17259;SDS011;8746;49.230;9.220;2023-05-10T12:56:41;3.40;;;1.40;;
17259;SDS011;8746;49.230;9.220;2023-05-10T12:59:07;1.50;;;1.05;;
17259;SDS011;8746;49.230;9.220;2023-05-10T13:01:32;1.15;;;1.08;;
17259;SDS011;8746;49.230;9.220;2023-05-10T13:03:58;2.10;;;1.30;;
17259;SDS011;8746;49.230;9.220;2023-05-10T13:06:25;2.42;;;1.20;;
17259;SDS011;8746;49.230;9.220;2023-05-10T13:08:50;2.97;;;1.15;;
17259;SDS011;8746;49.230;9.220;2023-05-10T13:11:16;3.08;;;1.48;;
17259;SDS011;8746;49.230;9.220;2023-05-10T13:13:42;3.38;;;1.30;;
17259;SDS011;8746;49.230;9.220;2023-05-10T13:16:07;3.30;;;1.20;;
17259;SDS011;8746;49.230;9.220;2023-05-10T13:18:32;4.70;;;1.35;;
17259;SDS011;8746;49.230;9.220;2023-05-10T13:20:58;1.90;;;1.45;;
17259;SDS011;8746;49.230;9.220;2023-05-10T13:23:23;2.30;;;1.60;;
17259;SDS011;8746;49.230;9.220;2023-05-10T13:25:49;2.60;;;1.45;;
17259;SDS011;8746;49.230;9.220;2023-05-10T13:28:14;2.35;;;1.33;;
17259;SDS011;8746;49.230;9.220;2023-05-10T13:30:40;1.75;;;1.33;;
17259;SDS011;8746;49.230;9.220;2023-05-10T13:33:05;2.58;;;1.30;;
17259;SDS011;8746;49.230;9.220;2023-05-10T13:35:31;2.13;;;1.33;;
17259;SDS011;8746;49.230;9.220;2023-05-10T13:37:56;2.85;;;1.35;;
17259;SDS011;8746;49.230;9.220;2023-05-10T13:40:22;2.15;;;1.15;;
17259;SDS011;8746;49.230;9.220;2023-05-10T13:42:48;1.23;;;1.08;;
17259;SDS011;8746;49.230;9.220;2023-05-10T13:45:13;3.40;;;1.00;;
17259;SDS011;8746;49.230;9.220;2023-05-10T13:47:38;1.98;;;1.20;;
17259;SDS011;8746;49.230;9.220;2023-05-10T13:50:04;1.40;;;1.23;;
17259;SDS011;8746;49.230;9.220;2023-05-10T13:52:29;1.20;;;1.15;;
17259;SDS011;8746;49.230;9.220;2023-05-10T13:54:55;2.38;;;1.20;;
17259;SDS011;8746;49.230;9.220;2023-05-10T13:57:21;2.75;;;1.23;;
17259;SDS011;8746;49.230;9.220;2023-05-10T13:59:46;2.13;;;1.70;;
17259;SDS011;8746;49.230;9.220;2023-05-10T14:02:12;1.98;;;1.23;;
17259;SDS011;8746;49.230;9.220;2023-05-10T14:04:38;3.47;;;1.33;;
17259;SDS011;8746;49.230;9.220;2023-05-10T14:07:03;1.92;;;1.45;;
17259;SDS011;8746;49.230;9.220;2023-05-10T14:09:29;1.27;;;0.93;;
17259;SDS011;8746;49.230;9.220;2023-05-10T14:11:55;1.30;;;1.00;;
17259;SDS011;8746;49.230;9.220;2023-05-10T14:14:20;2.13;;;0.90;;
17259;SDS011;8746;49.230;9.220;2023-05-10T14:16:46;2.95;;;1.02;;
17259;SDS011;8746;49.230;9.220;2023-05-10T14:19:11;2.28;;;1.00;;
17259;SDS011;8746;49.230;9.220;2023-05-10T14:21:37;1.30;;;1.20;;
17259;SDS011;8746;49.230;9.220;2023-05-10T14:24:02;2.03;;;0.90;;
17259;SDS011;8746;49.230;9.220;2023-05-10T14:26:27;1.63;;;0.90;;
17259;SDS011;8746;49.230;9.220;2023-05-10T14:28:53;2.60;;;1.20;;
17259;SDS011;8746;49.230;9.220;2023-05-10T14:31:18;4.43;;;1.10;;
17259;SDS011;8746;49.230;9.220;2023-05-10T14:33:45;2.60;;;1.10;;
17259;SDS011;8746;49.230;9.220;2023-05-10T14:36:11;1.73;;;1.20;;
17259;SDS011;8746;49.230;9.220;2023-05-10T14:38:37;4.72;;;1.20;;
17259;SDS011;8746;49.230;9.220;2023-05-10T14:41:02;4.30;;;1.15;;
17259;SDS011;8746;49.230;9.220;2023-05-10T14:43:27;0.95;;;0.95;;
17259;SDS011;8746;49.230;9.220;2023-05-10T14:45:53;3.50;;;1.10;;
17259;SDS011;8746;49.230;9.220;2023-05-10T14:48:18;1.35;;;1.10;;
17259;SDS011;8746;49.230;9.220;2023-05-10T14:50:44;1.02;;;0.90;;
17259;SDS011;8746;49.230;9.220;2023-05-10T14:53:11;1.70;;;1.05;;
17259;SDS011;8746;49.230;9.220;2023-05-10T14:55:36;1.52;;;1.02;;
17259;SDS011;8746;49.230;9.220;2023-05-10T14:58:02;1.30;;;1.00;;
17259;SDS011;8746;49.230;9.220;2023-05-10T15:00:28;1.88;;;0.93;;
17259;SDS011;8746;49.230;9.220;2023-05-10T15:02:54;2.70;;;1.30;;
17259;SDS011;8746;49.230;9.220;2023-05-10T15:05:19;3.50;;;1.70;;
17259;SDS011;8746;49.230;9.220;2023-05-10T15:07:45;1.20;;;1.10;;
17259;SDS011;8746;49.230;9.220;2023-05-10T15:10:10;1.98;;;1.00;;
17259;SDS011;8746;49.230;9.220;2023-05-10T15:12:36;1.20;;;1.10;;
17259;SDS011;8746;49.230;9.220;2023-05-10T15:15:02;4.53;;;1.27;;
17259;SDS011;8746;49.230;9.220;2023-05-10T15:17:27;5.03;;;1.35;;
17259;SDS011;8746;49.230;9.220;2023-05-10T15:19:53;2.10;;;1.27;;
17259;SDS011;8746;49.230;9.220;2023-05-10T15:22:18;1.20;;;1.20;;
17259;SDS011;8746;49.230;9.220;2023-05-10T15:24:44;1.17;;;1.00;;
17259;SDS011;8746;49.230;9.220;2023-05-10T15:27:09;1.05;;;1.05;;
17259;SDS011;8746;49.230;9.220;2023-05-10T15:29:34;1.40;;;1.13;;